Station: Hindmarsh Island  

  Atmospheric Gas Attenuation - ITU Rec 676-11   ----------------- dB/100km -----------------
Date Time Temp RH % AH g/m3 Dew Point Wind Direction Speed kph Gust kph Barometer mB Rainfall Since 9am 24GHz 47GHz 76GHz 122GHz 134GHz 241GHz
05/05 16:00 16.3 68 9.43 10.4 15 19 1023 0 21.2 26.9 42.3 111.0 106.9 368.4
05/05 15:50 16.8 68 9.72 10.9 15 19 1022.9 0 21.8 27.2 43.2 113.4 110.0 379.5
05/05 15:40 16.9 68 9.78 11 13 13 1022.9 0 21.9 27.2 43.4 113.9 110.7 381.8
05/05 15:30 16.1 68 9.32 10.2 13 15 1022.8 0 21.0 26.7 41.9 110.1 105.7 364.2
05/05 15:20 16.3 68 9.43 10.4 13 13 1022.9 0 21.2 26.9 42.3 111.0 106.9 368.4
05/05 15:10 16.1 69 9.46 10.4 13 13 1022.9 0 21.3 27.0 42.5 111.6 107.6 370.7
05/05 15:00 16.1 70 9.59 10.6 15 17 1022.8 0 21.6 27.2 43.0 113.0 109.3 376.8
05/05 14:50 16 70 9.54 10.5 17 17 1022.8 0 21.5 27.1 42.9 112.6 108.8 374.9
05/05 14:40 15.9 71 9.61 10.7 19 20 1022.7 0 21.6 27.3 43.2 113.5 109.8 378.6
05/05 14:30 16.1 74 10.14 11.5 20 28 1022.7 0 22.7 28.1 45.3 119.0 116.7 402.6
05/05 14:20 16.2 77 10.62 12.2 19 24 1022.7 0 23.8 28.9 47.2 124.1 123.1 425.1
05/05 14:10 15.9 76 10.29 11.7 22 24 1022.7 0 23.1 28.4 46.0 120.9 119.0 410.8
05/05 14:00 16 77 10.49 12 22 26 1022.7 0 23.5 28.7 46.8 123.0 121.6 419.9
05/05 13:50 16.3 75 10.4 11.9 24 26 1022.7 0 23.3 28.5 46.2 121.5 119.9 414.0
05/05 13:40 16.2 69 9.51 10.5 11 11 1022.8 0 21.4 27.0 42.6 112.0 108.1 372.6
05/05 13:30 16 71 9.67 10.7 9 13 1022.8 0 21.7 27.3 43.4 114.0 110.5 381.0
05/05 13:20 16 73 9.95 11.2 7 9 1022.8 0 22.3 27.8 44.6 117.0 114.3 394.2
05/05 13:10 16.2 75 10.34 11.8 7 9 1022.9 0 23.2 28.4 46.1 121.0 119.3 411.7
05/05 13:00 15.7 77 10.3 11.7 7 9 1023.1 0 23.1 28.5 46.2 121.4 119.5 412.5
05/05 12:50 15.2 80 10.38 11.8 7 9 1023.2 0 23.3 28.8 46.8 123.1 121.4 419.1
05/05 12:40 14.5 84 10.45 11.8 0 0 1023.3 0 23.5 29.2 47.6 125.0 123.5 426.3
05/05 12:30 14.3 87 10.69 12.2 9 15 1023.5 0 24.0 29.6 48.7 128.1 127.3 439.4
05/05 12:20 14.2 86 10.5 11.9 13 13 1023.7 0 23.6 29.4 48.0 126.1 124.8 430.6
05/05 12:10 14.9 85 10.83 12.4 17 19 1023.8 0 24.3 29.7 49.0 128.8 128.3 443.0
05/05 12:00 15.8 76 10.23 11.6 11 24 1023.8 0 22.9 28.4 45.9 120.5 118.5 408.8
05/05 11:50 15.4 76 9.99 11.2 13 13 1023.8 0 22.5 28.1 45.1 118.5 115.8 399.4
05/05 11:40 15.4 75 9.85 11 15 17 1023.8 0 22.2 27.9 44.5 116.9 113.9 392.8
05/05 11:30 15.2 77 9.99 11.2 22 26 1023.9 0 22.5 28.2 45.2 118.8 116.1 400.5
05/05 11:20 15.4 77 10.12 11.4 26 28 1023.8 0 22.7 28.3 45.7 119.9 117.6 405.7
05/05 11:10 16.2 68 9.38 10.3 15 19 1023.8 0 21.1 26.8 42.2 110.7 106.4 366.8
05/05 11:00 16.8 69 9.86 11.1 13 17 1023.7 0 22.1 27.4 43.8 115.0 112.0 386.2
05/05 10:50 16.7 68 9.66 10.8 13 13 1023.6 0 21.7 27.1 43.0 112.9 109.4 377.4
05/05 10:40 16.6 66 9.32 10.2 11 13 1023.5 0 21.0 26.6 41.7 109.4 105.1 362.1
05/05 10:30 16 66 8.99 9.7 11 17 1023.5 0 20.3 26.3 40.7 106.7 101.5 349.7
05/05 10:20 15.9 67 9.07 9.8 11 13 1023.4 0 20.5 26.4 41.1 107.7 102.7 353.8
05/05 10:10 16.1 67 9.18 10 13 17 1023.4 0 20.7 26.5 41.4 108.6 103.9 357.9
05/05 10:00 16.1 66 9.05 9.8 13 17 1023.3 0 20.4 26.3 40.9 107.2 102.2 351.9
05/05 09:50 16 68 9.26 10.1 13 15 1023.3 0 20.9 26.7 41.8 109.6 105.1 362.1
05/05 09:40 15.8 70 9.42 10.3 11 13 1023.3 0 21.2 27.0 42.5 111.6 107.5 370.4
05/05 09:30 15.8 71 9.56 10.6 13 17 1023.3 0 21.5 27.2 43.1 113.1 109.3 377.0
05/05 09:20 15.2 73 9.48 10.4 11 15 1023.2 0 21.4 27.3 43.1 113.1 109.1 376.0
05/05 09:10 15.1 77 9.93 11.1 11 13 1023.1 0 22.3 28.1 45.0 118.2 115.4 397.9
05/05 09:00 14.7 79 9.95 11.1 13 17 1023 0 22.4 28.2 45.3 119.0 116.2 400.9
05/05 08:50 14.6 82 10.26 11.6 11 15 1022.9 5.2 23.1 28.8 46.7 122.6 120.7 416.4
05/05 08:40 13.8 83 9.89 11 13 15 1022.8 5.2 22.3 28.4 45.6 119.7 116.7 402.5
05/05 08:30 14 85 10.25 11.5 11 15 1022.8 5.2 23.1 29.0 47.0 123.5 121.5 419.1
05/05 08:20 13.8 86 10.25 11.5 9 11 1022.7 5.2 23.1 29.0 47.1 123.8 121.8 420.1
05/05 08:10 13.7 87 10.3 11.6 11 11 1022.6 5.2 23.2 29.1 47.4 124.5 122.6 423.1
05/05 08:00 13.6 86 10.12 11.3 13 15 1022.5 5.2 22.8 28.9 46.6 122.6 120.2 414.7
05/05 07:50 13.5 86 10.06 11.2 11 11 1022.5 5.2 22.7 28.8 46.4 122.1 119.5 412.3
05/05 07:40 13.7 85 10.07 11.2 13 15 1022.3 5.2 22.7 28.7 46.4 121.8 119.4 411.7
05/05 07:30 14.1 82 9.95 11.1 19 24 1022.1 5.2 22.4 28.4 45.6 119.8 117.0 403.7
05/05 07:20 13.7 82 9.71 10.7 19 20 1022 5.2 22.0 28.1 44.8 117.7 114.3 394.1
05/05 07:10 13.4 84 9.77 10.8 20 24 1021.9 5.2 22.1 28.3 45.2 118.9 115.6 398.5
05/05 07:00 13.3 87 10.05 11.2 20 30 1021.7 5.2 22.7 28.8 46.5 122.2 119.6 412.6
05/05 06:50 13.2 88 10.1 11.3 19 24 1021.7 5.2 22.8 28.9 46.8 122.9 120.5 415.6
05/05 06:40 13.3 88 10.17 11.4 28 30 1021.5 5.2 23.0 29.0 47.0 123.5 121.3 418.5
05/05 06:30 13.4 90 10.46 11.8 24 32 1021.4 5.2 23.6 29.5 48.2 126.7 125.3 432.3
05/05 06:20 14 91 10.98 12.6 17 19 1021.3 5.2 24.7 30.2 50.1 131.7 131.7 454.8
05/05 06:10 13.6 91 10.71 12.2 20 24 1021.2 5.2 24.1 29.8 49.1 129.2 128.5 443.6
05/05 06:00 13.4 92 10.7 12.1 28 33 1021.1 5.2 24.1 29.9 49.2 129.4 128.7 444.2
05/05 05:50 13.6 94 11.06 12.7 28 30 1021.1 5.2 24.9 30.4 50.7 133.3 133.5 461.2
05/05 05:40 13.6 95 11.18 12.8 30 32 1020.9 5.2 25.1 30.6 51.2 134.7 135.3 467.2
05/05 05:30 13.5 95 11.11 12.7 22 32 1020.9 5.2 25.0 30.6 50.9 134.1 134.4 464.3
05/05 05:20 13.4 95 11.04 12.6 22 28 1020.9 5.2 24.8 30.5 50.7 133.4 133.6 461.3
05/05 05:10 13.3 95 10.98 12.5 22 28 1020.9 5 24.7 30.4 50.5 132.9 132.9 458.9
05/05 05:00 13.2 95 10.91 12.4 19 24 1020.8 4.8 24.6 30.3 50.3 132.2 132.0 455.9
05/05 04:50 13.3 95 10.98 12.5 22 26 1020.8 4.8 24.7 30.4 50.5 132.9 132.9 458.8
05/05 04:40 13.3 96 11.09 12.7 17 20 1020.7 4.8 24.9 30.6 51.0 134.2 134.5 464.4
05/05 04:30 13.4 95 11.04 12.6 20 26 1020.6 4.8 24.8 30.5 50.7 133.4 133.5 461.2
05/05 04:20 13.5 95 11.11 12.7 17 19 1020.4 4 25.0 30.5 50.9 134.0 134.4 464.1
05/05 04:10 13.4 95 11.04 12.6 20 26 1020.3 4 24.8 30.4 50.7 133.3 133.5 461.1
05/05 04:00 13.3 95 10.98 12.5 20 30 1020.3 4 24.7 30.4 50.5 132.8 132.8 458.7
05/05 03:50 13.4 95 11.04 12.6 20 24 1020.2 3.4 24.8 30.4 50.7 133.3 133.5 461.1
05/05 03:40 13.3 95 10.98 12.5 15 17 1020.2 3.4 24.7 30.4 50.5 132.8 132.8 458.6
05/05 03:30 13.3 94 10.86 12.4 17 24 1020.3 3.4 24.5 30.2 49.9 131.4 131.1 452.6
05/05 03:20 13.3 94 10.86 12.4 20 24 1020.4 3.4 24.5 30.2 49.9 131.4 131.1 452.6
05/05 03:10 13.4 94 10.93 12.5 22 24 1020.4 3.2 24.6 30.3 50.2 132.1 131.9 455.6
05/05 03:00 13.2 94 10.79 12.3 15 20 1020.3 2.6 24.3 30.1 49.7 130.7 130.2 449.6
05/05 02:50 13.2 94 10.79 12.3 13 15 1020.4 2.4 24.3 30.1 49.7 130.8 130.2 449.7
05/05 02:40 13.1 94 10.73 12.2 15 17 1020.4 2.2 24.2 30.0 49.5 130.2 129.5 447.2
05/05 02:30 13 94 10.66 12.1 17 22 1020.3 2.2 24.0 29.9 49.2 129.6 128.7 444.2
05/05 02:20 13.2 95 10.91 12.4 13 15 1020.4 2.2 24.6 30.3 50.2 132.2 132.0 455.7
05/05 02:10 13.4 95 11.04 12.6 15 17 1020.4 2.2 24.8 30.4 50.7 133.4 133.5 461.1
05/05 02:00 13.2 94 10.79 12.3 17 24 1020.5 1.8 24.3 30.1 49.7 130.8 130.3 449.7
05/05 01:50 13.1 94 10.73 12.2 15 19 1020.5 1.8 24.2 30.0 49.5 130.2 129.6 447.3
05/05 01:40 13.1 93 10.61 12 17 19 1020.4 1.8 23.9 29.8 49.0 128.8 127.8 441.2
05/05 01:30 13.3 93 10.75 12.2 17 22 1020.4 1.8 24.2 30.0 49.5 130.1 129.5 447.1
05/05 01:20 13.3 93 10.75 12.2 17 22 1020.4 1.6 24.2 30.0 49.5 130.1 129.5 447.1
05/05 01:10 13.3 92 10.63 12 17 17 1020.4 1.6 24.0 29.8 48.9 128.7 127.8 441.0
05/05 01:00 13.3 91 10.51 11.9 19 28 1020.3 1.6 23.7 29.5 48.4 127.3 126.0 435.0
05/05 00:50 13.2 90 10.33 11.6 19 20 1020.2 1.4 23.3 29.3 47.7 125.4 123.6 426.5
05/05 00:40 13.4 91 10.58 12 17 20 1020.2 1.4 23.8 29.6 48.6 127.9 126.9 437.9
05/05 00:30 13.1 90 10.27 11.5 15 22 1020 1.4 23.2 29.2 47.5 124.8 122.9 424.0
05/05 00:20 13.1 90 10.27 11.5 15 19 1019.9 1.4 23.2 29.2 47.5 124.8 122.9 424.0
05/05 00:10 13.1 90 10.27 11.5 13 15 1019.9 1.4 23.2 29.2 47.5 124.8 122.9 424.0
05/05 00:00 13.3 89 10.28 11.5 15 20 1019.9 1.2 23.2 29.1 47.4 124.6 122.7 423.4
04/05 23:50 13.4 90 10.46 11.8 17 19 1019.9 1.2 23.6 29.4 48.1 126.5 125.1 431.8
04/05 23:40 13.4 89 10.35 11.6 15 17 1019.9 1.2 23.4 29.2 47.6 125.2 123.6 426.3
04/05 23:30 13.8 89 10.6 12 20 30 1019.8 1.2 23.9 29.5 48.5 127.5 126.4 436.5

Last Refresh: 05-May-2026 16:17:09

Bureau of Meteorology